createdAt,value
2017-10-18T00:01:07.947Z,67.16
2017-10-18T00:03:34.245Z,67.19
2017-10-18T00:06:00.676Z,67.29
2017-10-18T00:08:26.933Z,67.31
2017-10-18T00:10:53.193Z,67.48
2017-10-18T00:13:20.438Z,67.50
2017-10-18T00:15:46.711Z,67.57
2017-10-18T00:18:17.738Z,67.66
2017-10-18T00:20:44.013Z,67.85
2017-10-18T00:23:10.341Z,68.01
2017-10-18T00:25:36.574Z,68.24
2017-10-18T00:28:03.003Z,68.03
2017-10-18T00:30:29.236Z,67.99
2017-10-18T00:32:55.450Z,68.02
2017-10-18T00:35:21.820Z,68.05
2017-10-18T00:37:49.065Z,67.96
2017-10-18T00:40:15.426Z,68.01
2017-10-18T00:42:41.716Z,68.15
2017-10-18T00:45:07.943Z,68.18
2017-10-18T00:47:34.242Z,68.27
2017-10-18T00:50:01.478Z,68.39
2017-10-18T00:52:27.727Z,68.28
2017-10-18T00:54:53.950Z,68.47
2017-10-18T00:57:20.253Z,68.55
2017-10-18T00:59:47.165Z,68.40
2017-10-18T01:02:13.442Z,68.40
2017-10-18T01:04:40.755Z,68.56
2017-10-18T01:07:07.189Z,68.58
2017-10-18T01:09:33.467Z,68.62
2017-10-18T01:12:00.174Z,68.66
2017-10-18T01:14:26.529Z,68.79
2017-10-18T01:16:52.741Z,68.79
2017-10-18T01:19:19.100Z,68.97
2017-10-18T01:21:45.411Z,68.62
2017-10-18T01:24:11.657Z,68.44
2017-10-18T01:26:37.962Z,68.31
2017-10-18T01:29:04.212Z,68.13
2017-10-18T01:31:30.649Z,68.23
2017-10-18T01:33:56.937Z,68.29
2017-10-18T01:36:23.162Z,68.45
2017-10-18T01:38:49.415Z,68.40
2017-10-18T01:41:16.893Z,68.31
2017-10-18T01:43:43.137Z,68.57
2017-10-18T01:46:09.351Z,68.58
2017-10-18T01:48:35.605Z,68.82
2017-10-18T01:51:01.925Z,68.87
2017-10-18T01:53:28.159Z,69.33
2017-10-18T01:55:54.441Z,69.05
2017-10-18T01:58:20.645Z,68.89
2017-10-18T02:00:46.902Z,68.78
2017-10-18T02:03:13.214Z,68.93
2017-10-18T02:05:39.460Z,69.01
2017-10-18T02:08:06.079Z,68.93
2017-10-18T02:10:32.369Z,69.10
2017-10-18T02:12:58.670Z,68.96
2017-10-18T02:15:24.930Z,68.94
2017-10-18T02:17:51.230Z,68.89
2017-10-18T02:20:17.552Z,69.11
2017-10-18T02:22:43.798Z,69.05
2017-10-18T02:25:10.176Z,69.13
2017-10-18T02:27:36.411Z,69.17
2017-10-18T02:30:02.671Z,69.15
2017-10-18T02:32:28.967Z,69.05
2017-10-18T02:34:55.217Z,69.32
2017-10-18T02:37:21.465Z,69.18
2017-10-18T02:39:48.723Z,69.22
2017-10-18T02:42:14.954Z,69.20
2017-10-18T02:44:41.201Z,69.28
2017-10-18T02:47:07.922Z,69.29
2017-10-18T02:49:34.191Z,69.46
2017-10-18T02:52:00.438Z,69.35
2017-10-18T02:54:28.216Z,69.48
2017-10-18T02:56:54.438Z,69.28
2017-10-18T02:59:20.665Z,69.12
2017-10-18T03:01:46.970Z,69.22
2017-10-18T03:04:13.202Z,69.40
2017-10-18T03:06:39.475Z,69.52
2017-10-18T03:09:06.620Z,69.45
2017-10-18T03:11:32.909Z,69.55
2017-10-18T03:13:59.155Z,69.48
2017-10-18T03:16:28.012Z,69.62
2017-10-18T03:18:55.821Z,69.54
2017-10-18T03:21:22.843Z,69.57
2017-10-18T03:23:49.510Z,69.55
2017-10-18T03:26:15.811Z,69.62
2017-10-18T03:28:42.081Z,69.72
2017-10-18T03:31:08.451Z,69.78
2017-10-18T03:33:34.710Z,69.84
2017-10-18T03:36:01.001Z,69.72
2017-10-18T03:38:27.638Z,69.71
2017-10-18T03:40:53.951Z,69.37
2017-10-18T03:43:20.183Z,69.48
2017-10-18T03:45:46.538Z,69.38
2017-10-18T03:48:12.770Z,69.45
2017-10-18T03:50:38.979Z,69.53
2017-10-18T03:53:05.270Z,69.59
2017-10-18T03:55:31.589Z,69.65
2017-10-18T03:57:57.839Z,69.67
2017-10-18T04:00:24.351Z,69.42
2017-10-18T04:02:50.611Z,69.48
2017-10-18T04:05:16.839Z,69.50
2017-10-18T04:07:43.453Z,69.51
2017-10-18T04:10:09.726Z,69.50
2017-10-18T04:12:36.038Z,69.35
2017-10-18T04:15:04.065Z,69.29
2017-10-18T04:17:30.438Z,69.52
2017-10-18T04:19:56.670Z,69.43
2017-10-18T04:22:22.877Z,69.32
2017-10-18T04:24:49.384Z,69.35
2017-10-18T04:27:16.267Z,69.33
2017-10-18T04:29:42.610Z,69.31
2017-10-18T04:32:09.736Z,69.71
2017-10-18T04:34:35.968Z,69.54
2017-10-18T04:37:02.214Z,69.74
2017-10-18T04:39:28.904Z,69.57
2017-10-18T04:41:55.150Z,69.48
2017-10-18T04:44:21.388Z,69.53
2017-10-18T04:46:48.213Z,69.57
2017-10-18T04:49:14.450Z,69.24
2017-10-18T04:51:41.670Z,69.17
2017-10-18T04:54:08.358Z,68.93
2017-10-18T04:56:34.840Z,68.84
2017-10-18T04:59:01.641Z,68.82
2017-10-18T05:01:28.382Z,68.88
2017-10-18T05:03:55.166Z,68.86
2017-10-18T05:06:21.970Z,68.72
2017-10-18T05:08:48.300Z,68.66
2017-10-18T05:11:14.572Z,68.54
2017-10-18T05:13:41.787Z,68.53
2017-10-18T05:16:08.637Z,68.54
2017-10-18T05:18:35.300Z,68.42
2017-10-18T05:21:02.324Z,68.45
2017-10-18T05:23:29.049Z,68.41
2017-10-18T05:25:55.299Z,69.12
2017-10-18T05:28:21.549Z,68.85
2017-10-18T05:30:47.840Z,68.78
2017-10-18T05:33:15.005Z,68.75
2017-10-18T05:35:41.269Z,68.83
2017-10-18T05:38:08.291Z,68.94
2017-10-18T05:40:34.536Z,69.01
2017-10-18T05:43:00.845Z,68.99
2017-10-18T05:45:28.034Z,68.92
2017-10-18T05:47:54.280Z,68.97
2017-10-18T05:50:20.551Z,68.99
2017-10-18T05:52:47.952Z,68.96
2017-10-18T05:55:14.342Z,69.10
2017-10-18T05:57:40.682Z,69.03
2017-10-18T06:00:07.063Z,69.13
2017-10-18T06:02:33.346Z,69.20
2017-10-18T06:04:59.609Z,69.20
2017-10-18T06:07:26.144Z,69.15
2017-10-18T06:09:52.447Z,69.23
2017-10-18T06:12:18.873Z,69.33
2017-10-18T06:14:45.261Z,69.08
2017-10-18T06:17:11.560Z,68.82
2017-10-18T06:19:37.872Z,68.73
2017-10-18T06:22:04.109Z,68.64
2017-10-18T06:24:30.418Z,68.59
2017-10-18T06:26:56.726Z,68.42
2017-10-18T06:29:23.050Z,68.42
2017-10-18T06:31:49.327Z,68.42
2017-10-18T06:34:16.171Z,68.32
2017-10-18T06:36:42.668Z,68.33
2017-10-18T06:39:09.254Z,68.28
2017-10-18T06:41:35.719Z,68.25
2017-10-18T06:44:01.972Z,68.28
2017-10-18T06:46:28.482Z,68.26
2017-10-18T06:48:54.872Z,68.17
2017-10-18T06:51:24.090Z,68.16
2017-10-18T06:53:50.340Z,68.12
2017-10-18T06:56:16.743Z,68.08
2017-10-18T06:58:43.108Z,68.07
2017-10-18T07:01:09.351Z,68.03
2017-10-18T07:03:35.943Z,67.99
2017-10-18T07:06:02.310Z,67.94
2017-10-18T07:08:28.572Z,67.94
2017-10-18T07:10:55.447Z,67.78
2017-10-18T07:13:21.715Z,67.70
2017-10-18T07:15:47.966Z,67.57
2017-10-18T07:18:14.328Z,67.54
2017-10-18T07:20:40.575Z,67.51
2017-10-18T07:23:06.825Z,67.44
2017-10-18T07:25:33.117Z,67.43
2017-10-18T07:27:59.337Z,67.37
2017-10-18T07:30:25.693Z,67.29
2017-10-18T07:32:52.980Z,67.29
2017-10-18T07:35:19.198Z,67.25
2017-10-18T07:37:45.491Z,67.22
2017-10-18T07:40:12.221Z,67.25
2017-10-18T07:42:38.469Z,67.14
2017-10-18T07:45:05.693Z,67.06
2017-10-18T07:47:31.981Z,67.01
2017-10-18T07:49:58.270Z,66.93
2017-10-18T07:52:24.488Z,66.87
2017-10-18T07:54:50.951Z,66.83
2017-10-18T07:57:17.284Z,66.80
2017-10-18T07:59:43.545Z,66.75
2017-10-18T08:02:09.860Z,66.71
2017-10-18T08:04:36.115Z,66.64
2017-10-18T08:07:02.364Z,66.59
2017-10-18T08:09:28.844Z,66.50
2017-10-18T08:11:55.210Z,66.43
2017-10-18T08:14:21.479Z,66.38
2017-10-18T08:16:48.255Z,66.34
2017-10-18T08:19:14.599Z,66.32
2017-10-18T08:21:40.892Z,66.28
2017-10-18T08:24:07.286Z,66.22
2017-10-18T08:26:33.631Z,66.14
2017-10-18T08:28:59.890Z,66.08
2017-10-18T08:31:26.169Z,66.08
2017-10-18T08:33:52.493Z,66.06
2017-10-18T08:36:19.375Z,65.97
2017-10-18T08:38:45.565Z,65.91
2017-10-18T08:41:11.791Z,65.84
2017-10-18T08:43:38.153Z,65.80
2017-10-18T08:46:04.623Z,65.74
2017-10-18T08:48:30.813Z,65.64
2017-10-18T08:50:57.069Z,65.56
2017-10-18T08:53:23.511Z,65.52
2017-10-18T08:55:49.736Z,65.53
2017-10-18T08:58:16.386Z,65.46
2017-10-18T09:00:42.671Z,65.38
2017-10-18T09:03:08.997Z,65.34
2017-10-18T09:05:35.308Z,65.31
2017-10-18T09:08:01.742Z,65.29
2017-10-18T09:10:28.230Z,65.27
2017-10-18T09:12:54.592Z,65.21
2017-10-18T09:15:20.802Z,65.18
2017-10-18T09:17:47.063Z,65.12
2017-10-18T09:20:13.691Z,65.07
2017-10-18T09:22:39.893Z,65.03
2017-10-18T09:25:06.421Z,64.97
2017-10-18T09:27:32.685Z,64.91
2017-10-18T09:29:59.142Z,64.89
2017-10-18T09:32:25.351Z,64.86
2017-10-18T09:34:52.429Z,64.81
2017-10-18T09:37:18.621Z,64.80
2017-10-18T09:39:44.796Z,64.75
2017-10-18T09:42:11.411Z,64.74
2017-10-18T09:44:37.633Z,64.70
2017-10-18T09:47:03.900Z,64.64
2017-10-18T09:49:30.254Z,64.58
2017-10-18T09:51:56.460Z,64.51
2017-10-18T09:54:22.912Z,64.48
2017-10-18T09:56:49.263Z,64.47
2017-10-18T09:59:15.469Z,64.39
2017-10-18T10:01:41.720Z,64.31
2017-10-18T10:04:08.062Z,64.26
2017-10-18T10:06:34.264Z,64.14
2017-10-18T10:09:00.518Z,64.11
2017-10-18T10:11:27.195Z,64.03
2017-10-18T10:13:53.438Z,64.07
2017-10-18T10:16:19.701Z,63.90
2017-10-18T10:18:45.989Z,63.59
2017-10-18T10:21:12.195Z,63.53
2017-10-18T10:23:38.409Z,63.33
2017-10-18T10:26:04.794Z,63.48
2017-10-18T10:28:31.010Z,63.45
2017-10-18T10:30:57.210Z,63.38
2017-10-18T10:33:23.880Z,63.24
2017-10-18T10:38:16.110Z,63.07
2017-10-18T10:40:42.595Z,62.97
2017-10-18T10:43:08.806Z,62.95
2017-10-18T10:45:35.223Z,62.93
2017-10-18T10:48:01.463Z,62.95
2017-10-18T10:50:27.651Z,62.89
2017-10-18T10:52:53.824Z,62.82
2017-10-18T10:55:20.391Z,62.89
2017-10-18T10:57:46.578Z,62.84
2017-10-18T11:00:12.779Z,62.80
2017-10-18T11:02:39.054Z,62.79
2017-10-18T11:05:05.271Z,62.95
2017-10-18T11:07:31.481Z,63.35
2017-10-18T11:09:58.046Z,63.40
2017-10-18T11:12:24.223Z,63.56
2017-10-18T11:14:50.759Z,63.57
2017-10-18T11:17:17.007Z,63.44
2017-10-18T11:19:43.438Z,63.34
2017-10-18T11:22:09.616Z,63.16
2017-10-18T11:24:35.865Z,63.07
2017-10-18T11:27:02.061Z,62.97
2017-10-18T11:29:28.511Z,62.85
2017-10-18T11:31:54.830Z,62.74
2017-10-18T11:34:21.007Z,62.65
2017-10-18T11:36:47.261Z,62.61
2017-10-18T11:39:14.078Z,62.58
2017-10-18T11:41:40.505Z,62.57
2017-10-18T11:44:06.690Z,62.56
2017-10-18T11:46:33.325Z,62.57
2017-10-18T11:48:59.495Z,62.75
2017-10-18T11:51:25.701Z,62.90
2017-10-18T11:53:52.569Z,62.87
2017-10-18T11:56:18.746Z,62.88
2017-10-18T11:58:44.928Z,62.90
2017-10-18T12:01:18.217Z,62.92
2017-10-18T12:03:44.393Z,62.97
2017-10-18T12:06:10.573Z,62.98
2017-10-18T12:08:37.165Z,62.98
2017-10-18T12:11:03.362Z,62.98
2017-10-18T12:13:29.525Z,62.97
2017-10-18T12:15:55.867Z,62.94
2017-10-18T12:18:22.450Z,62.92
2017-10-18T12:20:48.649Z,62.91
2017-10-18T12:23:14.885Z,62.90
2017-10-18T12:25:41.067Z,62.87
2017-10-18T12:28:07.245Z,62.83
2017-10-18T12:30:33.515Z,62.78
2017-10-18T12:32:59.672Z,62.77
2017-10-18T12:35:25.862Z,62.76
2017-10-18T12:37:52.477Z,62.77
2017-10-18T12:40:18.670Z,62.76
2017-10-18T12:42:44.841Z,62.74
2017-10-18T12:45:11.405Z,62.70
2017-10-18T12:47:37.887Z,62.65
2017-10-18T12:50:04.070Z,62.58
2017-10-18T12:52:30.343Z,62.50
2017-10-18T12:54:56.607Z,62.45
2017-10-18T12:57:23.102Z,62.43
2017-10-18T12:59:49.347Z,62.46
2017-10-18T13:02:15.531Z,62.49
2017-10-18T13:04:41.750Z,62.49
2017-10-18T13:07:08.069Z,62.47
2017-10-18T13:09:34.261Z,62.49
2017-10-18T13:12:00.440Z,62.53
2017-10-18T13:14:26.776Z,62.57
2017-10-18T13:16:53.204Z,62.62
2017-10-18T13:19:19.618Z,62.65
2017-10-18T13:21:45.831Z,62.68
2017-10-18T13:24:12.287Z,62.70
2017-10-18T13:26:38.866Z,62.76
2017-10-18T13:29:05.051Z,62.82
2017-10-18T13:31:31.239Z,62.86
2017-10-18T13:33:57.646Z,62.89
2017-10-18T13:36:23.842Z,62.90
2017-10-18T13:38:50.038Z,62.92
2017-10-18T13:41:16.370Z,62.94
2017-10-18T13:43:42.871Z,62.94
2017-10-18T13:46:09.067Z,62.94
2017-10-18T13:48:35.319Z,62.93
2017-10-18T13:51:01.498Z,62.93
2017-10-18T13:53:33.717Z,62.94
2017-10-18T13:56:00.668Z,62.97
2017-10-18T13:58:26.848Z,62.98
2017-10-18T14:00:53.030Z,63.00
2017-10-18T14:03:19.618Z,63.03
2017-10-18T14:05:45.803Z,63.06
2017-10-18T14:08:12.014Z,63.05
2017-10-18T14:10:38.325Z,63.03
2017-10-18T14:13:04.768Z,63.02
2017-10-18T14:15:30.958Z,63.04
2017-10-18T14:17:57.958Z,63.09
2017-10-18T14:20:24.146Z,63.13
2017-10-18T14:22:50.333Z,63.20
2017-10-18T14:25:16.925Z,63.24
2017-10-18T14:27:43.379Z,63.29
2017-10-18T14:30:09.565Z,63.31
2017-10-18T14:32:35.818Z,63.30
2017-10-18T14:35:02.079Z,63.33
2017-10-18T14:37:28.271Z,63.38
2017-10-18T14:39:54.546Z,63.40
2017-10-18T14:42:20.744Z,63.44
2017-10-18T14:44:47.282Z,63.47
2017-10-18T14:47:13.657Z,63.51
2017-10-18T14:49:40.100Z,63.54
2017-10-18T14:52:06.322Z,63.58
2017-10-18T14:54:32.903Z,63.62
2017-10-18T14:56:59.134Z,63.64
2017-10-18T14:59:25.342Z,63.62
2017-10-18T15:01:51.641Z,63.62
2017-10-18T15:04:17.813Z,63.63
2017-10-18T15:06:44.018Z,63.67
2017-10-18T15:09:10.666Z,63.68
2017-10-18T15:11:36.849Z,63.73
2017-10-18T15:14:03.043Z,63.73
2017-10-18T15:16:29.354Z,63.77
2017-10-18T15:18:55.647Z,63.79
2017-10-18T15:21:21.844Z,63.80
2017-10-18T15:23:48.098Z,63.84
2017-10-18T15:26:14.322Z,63.87
2017-10-18T15:28:40.501Z,63.88
2017-10-18T15:31:06.760Z,63.89
2017-10-18T15:33:32.965Z,63.91
2017-10-18T15:35:59.213Z,63.93
2017-10-18T15:38:25.472Z,63.95
2017-10-18T15:40:51.657Z,63.98
2017-10-18T15:43:17.825Z,64.04
2017-10-18T15:45:44.066Z,64.08
2017-10-18T15:48:10.542Z,64.11
2017-10-18T15:50:36.750Z,64.12
2017-10-18T15:53:03.110Z,64.14
2017-10-18T15:55:29.385Z,64.20
2017-10-18T15:57:55.572Z,64.22
2017-10-18T16:00:21.831Z,64.28
2017-10-18T16:02:48.024Z,64.28
2017-10-18T16:05:14.223Z,64.32
2017-10-18T16:07:40.490Z,64.32
2017-10-18T16:10:06.692Z,64.36
2017-10-18T16:12:32.892Z,64.37
2017-10-18T16:14:59.397Z,64.39
2017-10-18T16:17:25.893Z,64.40
2017-10-18T16:19:52.152Z,64.46
2017-10-18T16:22:18.451Z,64.47
2017-10-18T16:24:45.806Z,64.51
2017-10-18T16:27:12.067Z,64.56
2017-10-18T16:29:38.831Z,64.59
2017-10-18T16:32:05.013Z,64.60
2017-10-18T16:34:31.360Z,64.62
2017-10-18T16:36:57.642Z,64.64
2017-10-18T16:39:23.840Z,64.68
2017-10-18T16:41:50.326Z,64.77
2017-10-18T16:44:16.595Z,64.73
2017-10-18T16:46:42.824Z,64.98
2017-10-18T16:49:09.044Z,65.08
2017-10-18T16:51:35.612Z,65.29
2017-10-18T16:54:01.814Z,65.39
2017-10-18T16:56:28.018Z,65.41
2017-10-18T16:58:54.556Z,65.49
2017-10-18T17:01:20.758Z,65.59
2017-10-18T17:03:46.960Z,65.62
2017-10-18T17:06:13.729Z,65.75
2017-10-18T17:08:39.933Z,65.83
2017-10-18T17:11:06.113Z,65.79
2017-10-18T17:13:32.370Z,65.70
2017-10-18T17:15:58.597Z,65.64
2017-10-18T17:18:24.818Z,65.71
2017-10-18T17:20:51.349Z,65.74
2017-10-18T17:23:17.837Z,65.78
2017-10-18T17:25:44.033Z,65.73
2017-10-18T17:28:10.370Z,65.85
2017-10-18T17:30:36.820Z,65.87
2017-10-18T17:33:03.047Z,65.86
2017-10-18T17:35:29.925Z,65.91
2017-10-18T17:37:56.131Z,65.82
2017-10-18T17:40:22.351Z,65.92
2017-10-18T17:42:48.866Z,66.05
2017-10-18T17:45:15.113Z,65.75
2017-10-18T17:47:41.963Z,65.87
2017-10-18T17:50:08.496Z,66.04
2017-10-18T17:52:34.704Z,66.00
2017-10-18T17:55:01.311Z,66.16
2017-10-18T17:57:27.528Z,66.17
2017-10-18T17:59:53.778Z,66.10
2017-10-18T18:02:20.170Z,66.11
2017-10-18T18:04:46.378Z,66.11
2017-10-18T18:07:12.599Z,66.10
2017-10-18T18:09:38.838Z,66.12
2017-10-18T18:12:05.068Z,66.16
2017-10-18T18:14:31.352Z,66.31
2017-10-18T18:16:57.988Z,66.37
2017-10-18T18:19:24.222Z,66.28
2017-10-18T18:21:50.420Z,66.29
2017-10-18T18:24:17.378Z,66.31
2017-10-18T18:26:43.618Z,66.36
2017-10-18T18:29:09.826Z,66.47
2017-10-18T18:31:36.474Z,66.56
2017-10-18T18:34:02.673Z,66.57
2017-10-18T18:36:28.997Z,66.69
2017-10-18T18:38:55.351Z,66.81
2017-10-18T18:41:21.649Z,66.68
2017-10-18T18:43:47.853Z,66.50
2017-10-18T18:46:14.342Z,66.46
2017-10-18T18:48:40.561Z,66.41
2017-10-18T18:51:06.809Z,66.41
2017-10-18T18:53:33.176Z,66.38
2017-10-18T18:55:59.382Z,66.47
2017-10-18T18:58:25.613Z,66.49
2017-10-18T19:00:51.873Z,66.47
2017-10-18T19:03:18.127Z,66.48
2017-10-18T19:05:44.452Z,66.53
2017-10-18T19:08:10.891Z,66.58
2017-10-18T19:10:37.122Z,66.62
2017-10-18T19:13:03.751Z,66.65
2017-10-18T19:15:29.942Z,66.61
2017-10-18T19:17:56.141Z,66.75
2017-10-18T19:20:22.686Z,66.78
2017-10-18T19:22:48.946Z,66.82
2017-10-18T19:25:15.186Z,66.89
2017-10-18T19:27:41.427Z,66.86
2017-10-18T19:30:07.643Z,66.96
2017-10-18T19:32:33.859Z,67.07
2017-10-18T19:35:00.654Z,67.04
2017-10-18T19:37:26.953Z,67.10
2017-10-18T19:39:53.183Z,67.07
2017-10-18T19:42:20.044Z,67.17
2017-10-18T19:44:46.243Z,67.31
2017-10-18T19:47:12.437Z,67.31
2017-10-18T19:49:38.779Z,67.25
2017-10-18T19:52:05.182Z,67.32
2017-10-18T19:54:31.380Z,67.31
2017-10-18T19:56:57.978Z,67.28
2017-10-18T19:59:24.182Z,67.26
2017-10-18T20:01:50.636Z,67.28
2017-10-18T20:04:17.050Z,67.25
2017-10-18T20:06:43.320Z,67.25
2017-10-18T20:09:09.826Z,67.25
2017-10-18T20:11:36.265Z,67.21
2017-10-18T20:14:02.970Z,67.14
2017-10-18T20:16:29.233Z,67.16
2017-10-18T20:18:55.572Z,67.24
2017-10-18T20:21:22.171Z,67.32
2017-10-18T20:23:48.347Z,67.40
2017-10-18T20:26:14.837Z,67.40
2017-10-18T20:28:41.128Z,67.26
2017-10-18T20:31:07.338Z,67.25
2017-10-18T20:33:33.554Z,67.22
2017-10-18T20:35:59.942Z,67.12
2017-10-18T20:38:26.154Z,67.02
2017-10-18T20:40:52.346Z,66.93
2017-10-18T20:43:18.965Z,66.89
2017-10-18T20:45:45.158Z,67.00
2017-10-18T20:48:11.396Z,66.96
2017-10-18T20:50:37.663Z,67.01
2017-10-18T20:53:03.850Z,67.01
2017-10-18T20:55:30.043Z,67.07
2017-10-18T20:57:56.297Z,67.08
2017-10-18T21:00:22.474Z,67.00
2017-10-18T21:02:48.662Z,67.09
2017-10-18T21:05:14.934Z,67.07
2017-10-18T21:07:41.202Z,66.79
2017-10-18T21:10:07.427Z,66.64
2017-10-18T21:12:34.100Z,67.01
2017-10-18T21:15:00.288Z,67.04
2017-10-18T21:17:26.902Z,67.01
2017-10-18T21:19:53.261Z,67.03
2017-10-18T21:22:19.566Z,67.10
2017-10-18T21:24:45.801Z,67.00
2017-10-18T21:27:12.374Z,67.04
2017-10-18T21:29:38.580Z,66.96
2017-10-18T21:32:04.813Z,66.88
2017-10-18T21:34:31.632Z,66.82
2017-10-18T21:36:57.984Z,66.84
2017-10-18T21:39:24.430Z,66.94
2017-10-18T21:41:51.066Z,66.88
2017-10-18T21:44:17.322Z,66.80
2017-10-18T21:46:43.745Z,66.76
2017-10-18T21:49:10.337Z,66.75
2017-10-18T21:51:36.817Z,66.80
2017-10-18T21:54:03.057Z,66.80
2017-10-18T21:56:29.299Z,66.75
2017-10-18T21:58:55.497Z,66.84
2017-10-18T22:01:21.701Z,66.96
2017-10-18T22:03:47.934Z,66.95
2017-10-18T22:06:14.141Z,67.12
2017-10-18T22:08:40.952Z,67.25
2017-10-18T22:11:07.160Z,67.40
2017-10-18T22:13:33.359Z,67.50
2017-10-18T22:15:59.626Z,67.56
2017-10-18T22:18:26.054Z,67.56
2017-10-18T22:20:52.250Z,67.54
2017-10-18T22:23:18.894Z,67.65
2017-10-18T22:25:45.105Z,67.67
2017-10-18T22:28:11.532Z,67.76
2017-10-18T22:30:38.058Z,67.73
2017-10-18T22:33:04.500Z,67.88
2017-10-18T22:35:30.753Z,67.95
2017-10-18T22:37:57.104Z,68.02
2017-10-18T22:40:23.469Z,68.09
2017-10-18T22:42:49.749Z,68.19
2017-10-18T22:45:16.728Z,68.22
2017-10-18T22:47:42.926Z,68.20
2017-10-18T22:50:09.145Z,68.08
2017-10-18T22:52:35.705Z,67.89
2017-10-18T22:55:01.893Z,68.03
2017-10-18T22:57:28.084Z,68.22
2017-10-18T22:59:54.409Z,68.30
2017-10-18T23:02:20.609Z,68.38
2017-10-18T23:04:46.812Z,68.44
2017-10-18T23:07:14.004Z,68.53
2017-10-18T23:09:40.202Z,68.56
2017-10-18T23:12:06.406Z,68.58
2017-10-18T23:14:32.665Z,68.61
2017-10-18T23:16:58.856Z,68.59
2017-10-18T23:19:25.290Z,68.64
2017-10-18T23:21:51.530Z,68.58
2017-10-18T23:24:18.650Z,68.58
2017-10-18T23:26:45.079Z,68.57
2017-10-18T23:29:11.360Z,68.56
2017-10-18T23:31:37.557Z,68.50
2017-10-18T23:34:03.770Z,68.52
2017-10-18T23:36:30.388Z,68.55
2017-10-18T23:38:56.584Z,68.59
2017-10-18T23:41:22.809Z,68.71
2017-10-18T23:43:49.144Z,68.69
2017-10-18T23:46:15.356Z,68.75
2017-10-18T23:48:41.588Z,68.86
2017-10-18T23:51:08.181Z,68.94
2017-10-18T23:53:34.377Z,68.99
2017-10-18T23:56:00.829Z,69.14
2017-10-18T23:58:27.379Z,69.18
